Time;durP1;ratioP1;P1;durP2;ratioP2;P2;SDS_P1;SDS_P2;PMS_P1;PMS_P2;Temp;Humidity;BMP_temperature;BMP_pressure;BME280_temperature;BME280_humidity;BME280_pressure;Samples;Min_cycle;Max_cycle;Signal;HPM_P1;HPM_P2
2022/01/05 00:01:46;;;;;;;;;;;;;;;;;;5010582;28;19932;-77
2022/01/05 00:04:13;;;;;;;;;;;;;;;;;;5006186;28;20316;-75
2022/01/05 00:06:40;;;;;;;;;;;;;;;;;;5012143;28;20277;-76
2022/01/05 00:09:07;;;;;;;;;;;;;;;;;;5013309;28;19927;-77
2022/01/05 00:11:34;;;;;;;;;;;;;;;;;;5014642;28;19926;-78
2022/01/05 00:14:02;;;;;;;;;;;;;;;;;;5013902;28;19933;-77
2022/01/05 00:16:29;;;;;;;;;;;;;;;;;;5011756;28;19930;-78
2022/01/05 00:18:56;;;;;;;;;;;;;;;;;;5012626;28;19941;-75
2022/01/05 00:21:23;;;;;;;;;;;;;;;;;;5011796;28;20005;-76
2022/01/05 00:23:50;;;;;;;;;;;;;;;;;;5014313;28;20319;-76
2022/01/05 00:26:17;;;;;;;;;;;;;;;;;;5004325;28;20000;-76
2022/01/05 00:28:44;;;;;;;;;;;;;;;;;;5012663;28;19925;-77
2022/01/05 00:31:10;;;;;;;;;;;;;;;;;;5012672;28;20289;-75
2022/01/05 00:33:37;;;;;;;;;;;;;;;;;;5015070;28;20295;-75
2022/01/05 00:36:04;;;;;;;;;;;;;;;;;;5007769;28;20397;-76
2022/01/05 00:38:31;;;;;;;;;;;;;;;;;;5015630;28;19945;-76
2022/01/05 00:41:00;;;;;;;;;;;;;;;;;;5016896;28;20016;-76
2022/01/05 00:43:27;;;;;;;;;;;;;;;;;;5016932;28;19952;-76
2022/01/05 00:45:54;;;;;;;;;;;;;;;;;;5013222;28;20012;-76
2022/01/05 00:48:20;;;;;;;;;;;;;;;;;;5017258;28;19980;-76
2022/01/05 00:50:47;;;;;;;;;;;;;;;;;;5014489;28;19930;-75
2022/01/05 00:53:14;;;;;;;;;;;;;;;;;;5013366;28;19926;-76
2022/01/05 00:55:41;;;;;;;;;;;;;;;;;;5012453;28;20020;-75
2022/01/05 00:58:08;;;;;;;;;;;;;;;;;;5013746;28;20012;-76
2022/01/05 01:00:35;;;;;;;;;;;;;;;;;;5014720;28;19925;-76
2022/01/05 01:03:02;;;;;;;;;;;;;;;;;;5011089;28;20036;-76
2022/01/05 01:05:29;;;;;;;;;;;;;;;;;;5012375;28;20036;-75
2022/01/05 01:07:56;;;;;;;;;;;;;;;;;;5011844;28;19970;-74
2022/01/05 01:10:23;;;;;;;;;;;;;;;;;;5008129;28;20012;-76
2022/01/05 01:12:50;;;;;;;;;;;;;;;;;;5009866;28;20287;-75
2022/01/05 01:15:17;;;;;;;;;;;;;;;;;;5009455;28;20412;-75
2022/01/05 01:17:44;;;;;;;;;;;;;;;;;;5007740;28;20377;-76
2022/01/05 01:20:11;;;;;;;;;;;;;;;;;;5015881;28;19932;-76
2022/01/05 01:22:38;;;;;;;;;;;;;;;;;;5009999;28;19933;-76
2022/01/05 01:25:05;;;;;;;;;;;;;;;;;;5015328;28;19926;-76
2022/01/05 01:27:32;;;;;;;;;;;;;;;;;;5014495;28;19926;-76
2022/01/05 01:29:58;;;;;;;;;;;;;;;;;;5012690;28;19925;-76
2022/01/05 01:32:25;;;;;;;;;;;;;;;;;;5012941;28;19930;-75
2022/01/05 01:34:52;;;;;;;;;;;;;;;;;;5012205;28;20347;-76
2022/01/05 01:37:19;;;;;;;;;;;;;;;;;;5009671;28;20392;-76
2022/01/05 01:39:46;;;;;;;;;;;;;;;;;;5012836;28;20452;-76
2022/01/05 01:42:13;;;;;;;;;;;;;;;;;;5011447;28;19929;-76
2022/01/05 01:44:40;;;;;;;;;;;;;;;;;;5013045;28;19925;-76
2022/01/05 01:47:07;;;;;;;;;;;;;;;;;;5011146;28;19925;-77
2022/01/05 01:49:34;;;;;;;;;;;;;;;;;;5013053;28;19925;-76
2022/01/05 01:52:01;;;;;;;;;;;;;;;;;;5012025;28;19980;-76
2022/01/05 01:54:28;;;;;;;;;;;;;;;;;;5014917;28;19925;-76
2022/01/05 01:56:55;;;;;;;;;;;;;;;;;;5015329;28;20415;-76
2022/01/05 01:59:22;;;;;;;;;;;;;;;;;;5009680;28;19925;-76
2022/01/05 02:01:49;;;;;;;;;;;;;;;;;;5012073;28;19925;-76
2022/01/05 02:04:16;;;;;;;;;;;;;;;;;;5010403;28;19931;-77
2022/01/05 02:06:43;;;;;;;;;;;;;;;;;;5011216;28;19932;-76
2022/01/05 02:09:10;;;;;;;;;;;;;;;;;;5010214;28;19935;-76
2022/01/05 02:11:37;;;;;;;;;;;;;;;;;;5014133;28;19926;-76
2022/01/05 02:14:04;;;;;;;;;;;;;;;;;;5014524;28;20258;-76
2022/01/05 02:16:33;;;;;;;;;;;;;;;;;;5012552;28;19975;-76
2022/01/05 02:19:00;;;;;;;;;;;;;;;;;;5012825;28;19930;-76
2022/01/05 02:21:27;;;;;;;;;;;;;;;;;;5014829;28;19978;-76
2022/01/05 02:23:54;;;;;;;;;;;;;;;;;;5013678;28;19948;-76
2022/01/05 02:26:21;;;;;;;;;;;;;;;;;;5007735;28;20015;-76
2022/01/05 02:28:48;;;;;;;;;;;;;;;;;;5008615;28;20308;-75
2022/01/05 02:31:15;;;;;;;;;;;;;;;;;;5014822;28;19967;-75
2022/01/05 02:33:42;;;;;;;;;;;;;;;;;;5015712;28;20331;-76
2022/01/05 02:36:10;;;;;;;;;;;;;;;;;;5011668;28;19933;-76
2022/01/05 02:38:37;;;;;;;;;;;;;;;;;;5010934;28;19925;-76
2022/01/05 02:41:04;;;;;;;;;;;;;;;;;;5012966;28;20012;-76
2022/01/05 02:43:31;;;;;;;;;;;;;;;;;;5014365;28;19930;-76
2022/01/05 02:45:58;;;;;;;;;;;;;;;;;;5013229;28;19925;-76
2022/01/05 02:48:25;;;;;;;;;;;;;;;;;;5016172;28;19925;-76
2022/01/05 02:50:52;;;;;;;;;;;;;;;;;;5014560;28;19925;-76
2022/01/05 02:53:19;;;;;;;;;;;;;;;;;;5015543;28;20033;-76
2022/01/05 02:55:46;;;;;;;;;;;;;;;;;;5014086;28;20020;-76
2022/01/05 02:58:13;;;;;;;;;;;;;;;;;;5013368;28;19993;-76
2022/01/05 03:00:40;;;;;;;;;;;;;;;;;;5015722;28;19989;-75
2022/01/05 03:03:06;;;;;;;;;;;;;;;;;;5016384;28;20021;-76
2022/01/05 03:05:33;;;;;;;;;;;;;;;;;;5013961;28;20069;-76
2022/01/05 03:08:00;;;;;;;;;;;;;;;;;;5013474;28;20016;-76
2022/01/05 03:10:27;;;;;;;;;;;;;;;;;;5013494;28;19976;-74
2022/01/05 03:12:54;;;;;;;;;;;;;;;;;;5012698;28;20019;-75
2022/01/05 03:15:21;;;;;;;;;;;;;;;;;;5014231;28;19929;-74
2022/01/05 03:17:48;;;;;;;;;;;;;;;;;;5006576;28;20041;-73
2022/01/05 03:20:17;;;;;;;;;;;;;;;;;;5002042;28;19925;-74
2022/01/05 03:22:44;;;;;;;;;;;;;;;;;;5009895;28;20462;-73
2022/01/05 03:25:16;;;;;;;;;;;;;;;;;;5010668;28;19996;-74
2022/01/05 03:27:42;;;;;;;;;;;;;;;;;;5011101;28;19925;-74
2022/01/05 03:30:09;;;;;;;;;;;;;;;;;;5015773;28;19992;-76
2022/01/05 03:32:47;;;;;;;;;;;;;;;;;;5002277;28;20029;-75
2022/01/05 03:35:14;;;;;;;;;;;;;;;;;;5012737;28;20467;-75
2022/01/05 03:37:44;;;;;;;;;;;;;;;;;;5011745;28;19929;-75
2022/01/05 03:40:11;;;;;;;;;;;;;;;;;;5012790;28;19936;-76
2022/01/05 03:42:38;;;;;;;;;;;;;;;;;;5007620;28;19932;-76
2022/01/05 03:45:05;;;;;;;;;;;;;;;;;;5009751;28;19936;-75
2022/01/05 03:47:32;;;;;;;;;;;;;;;;;;5008675;28;20017;-75
2022/01/05 03:49:59;;;;;;;;;;;;;;;;;;5009128;28;20016;-75
2022/01/05 03:52:26;;;;;;;;;;;;;;;;;;5013498;28;20012;-76
2022/01/05 03:54:53;;;;;;;;;;;;;;;;;;5016392;28;19997;-75
2022/01/05 03:57:19;;;;;;;;;;;;;;;;;;5013761;28;19936;-75
2022/01/05 03:59:46;;;;;;;;;;;;;;;;;;5012593;28;19925;-75
2022/01/05 04:02:13;;;;;;;;;;;;;;;;;;5005678;28;19925;-74
2022/01/05 04:04:40;;;;;;;;;;;;;;;;;;5015731;28;20020;-75
2022/01/05 04:07:08;;;;;;;;;;;;;;;;;;5011347;28;20486;-75
2022/01/05 04:09:35;;;;;;;;;;;;;;;;;;5015605;28;20344;-75
2022/01/05 04:12:02;;;;;;;;;;;;;;;;;;5015671;28;20384;-75
2022/01/05 04:14:29;;;;;;;;;;;;;;;;;;5013174;28;19932;-74
2022/01/05 04:16:56;;;;;;;;;;;;;;;;;;5013592;28;19926;-75
2022/01/05 04:19:24;;;;;;;;;;;;;;;;;;5018925;28;19930;-75
2022/01/05 04:21:51;;;;;;;;;;;;;;;;;;5014952;28;19932;-76
2022/01/05 04:24:18;;;;;;;;;;;;;;;;;;5018262;28;19988;-74
2022/01/05 04:26:45;;;;;;;;;;;;;;;;;;5013850;28;20008;-74
2022/01/05 04:29:12;;;;;;;;;;;;;;;;;;5013549;28;20395;-75
2022/01/05 04:31:39;;;;;;;;;;;;;;;;;;5012707;28;19925;-75
2022/01/05 04:34:06;;;;;;;;;;;;;;;;;;5015881;28;19926;-75
2022/01/05 04:36:33;;;;;;;;;;;;;;;;;;5014847;28;19925;-75
2022/01/05 04:39:00;;;;;;;;;;;;;;;;;;5013998;28;19972;-75
2022/01/05 04:41:27;;;;;;;;;;;;;;;;;;5016625;28;19949;-74
2022/01/05 04:43:54;;;;;;;;;;;;;;;;;;5018660;28;20491;-75
2022/01/05 04:46:21;;;;;;;;;;;;;;;;;;5017291;28;19925;-76
2022/01/05 04:48:47;;;;;;;;;;;;;;;;;;5018357;28;19931;-75
2022/01/05 04:51:14;;;;;;;;;;;;;;;;;;5018064;28;19925;-75
2022/01/05 04:53:41;;;;;;;;;;;;;;;;;;5014481;28;19936;-75
2022/01/05 04:56:08;;;;;;;;;;;;;;;;;;5015954;28;19932;-75
2022/01/05 04:58:35;;;;;;;;;;;;;;;;;;5015740;28;19936;-75
2022/01/05 05:01:02;;;;;;;;;;;;;;;;;;5013677;28;19950;-75
2022/01/05 05:03:29;;;;;;;;;;;;;;;;;;5012911;28;19926;-75
2022/01/05 05:05:56;;;;;;;;;;;;;;;;;;5016476;28;20024;-75
2022/01/05 05:08:23;;;;;;;;;;;;;;;;;;5016935;28;20028;-74
2022/01/05 05:10:50;;;;;;;;;;;;;;;;;;5017389;28;20020;-75
2022/01/05 05:13:17;;;;;;;;;;;;;;;;;;5014618;28;19936;-75
2022/01/05 05:15:44;;;;;;;;;;;;;;;;;;5013674;28;19934;-75
2022/01/05 05:18:11;;;;;;;;;;;;;;;;;;5014905;28;19939;-75
2022/01/05 05:20:38;;;;;;;;;;;;;;;;;;5014922;28;20008;-75
2022/01/05 05:23:05;;;;;;;;;;;;;;;;;;5013303;28;20008;-75
2022/01/05 05:25:32;;;;;;;;;;;;;;;;;;5017996;28;19929;-75
2022/01/05 05:27:59;;;;;;;;;;;;;;;;;;5016020;28;19932;-75
2022/01/05 05:30:26;;;;;;;;;;;;;;;;;;5012205;28;19925;-74
2022/01/05 05:32:54;;;;;;;;;;;;;;;;;;5013802;28;19949;-75
2022/01/05 05:35:21;;;;;;;;;;;;;;;;;;5015169;28;19947;-75
2022/01/05 05:37:48;;;;;;;;;;;;;;;;;;5014597;28;20004;-75
2022/01/05 05:40:15;;;;;;;;;;;;;;;;;;5013585;28;20384;-74
2022/01/05 05:42:42;;;;;;;;;;;;;;;;;;5009953;28;20414;-75
2022/01/05 05:45:09;;;;;;;;;;;;;;;;;;5014737;28;20406;-76
2022/01/05 05:47:36;;;;;;;;;;;;;;;;;;5012076;28;20463;-76
2022/01/05 05:50:03;;;;;;;;;;;;;;;;;;5016432;28;19940;-76
2022/01/05 05:52:30;;;;;;;;;;;;;;;;;;5010079;28;20024;-76
2022/01/05 05:54:57;;;;;;;;;;;;;;;;;;5015665;28;20012;-76
2022/01/05 05:57:24;;;;;;;;;;;;;;;;;;5007934;28;20307;-76
2022/01/05 05:59:51;;;;;;;;;;;;;;;;;;5015366;28;20377;-76
2022/01/05 06:02:18;;;;;;;;;;;;;;;;;;5015135;28;19932;-75
2022/01/05 06:04:45;;;;;;;;;;;;;;;;;;5009856;28;19925;-75
2022/01/05 06:07:11;;;;;;;;;;;;;;;;;;5003671;28;19932;-75
2022/01/05 06:09:38;;;;;;;;;;;;;;;;;;5012592;28;19925;-75
2022/01/05 06:12:05;;;;;;;;;;;;;;;;;;5011341;28;20048;-75
2022/01/05 06:14:32;;;;;;;;;;;;;;;;;;5013627;28;19952;-76
2022/01/05 06:16:59;;;;;;;;;;;;;;;;;;5010761;28;20273;-74
2022/01/05 06:19:26;;;;;;;;;;;;;;;;;;5010475;28;19925;-75
2022/01/05 06:21:53;;;;;;;;;;;;;;;;;;5011283;28;19939;-74
2022/01/05 06:24:20;;;;;;;;;;;;;;;;;;5007471;28;19929;-71
2022/01/05 06:26:47;;;;;;;;;;;;;;;;;;5011397;28;19925;-71
2022/01/05 06:29:14;;;;;;;;;;;;;;;;;;5009214;28;19932;-71
2022/01/05 06:31:41;;;;;;;;;;;;;;;;;;5006022;28;19941;-71
2022/01/05 06:34:08;;;;;;;;;;;;;;;;;;5009277;28;20437;-71
2022/01/05 06:36:35;;;;;;;;;;;;;;;;;;5008349;28;20460;-69
2022/01/05 06:39:02;;;;;;;;;;;;;;;;;;5011652;28;19932;-70
2022/01/05 06:41:29;;;;;;;;;;;;;;;;;;5003574;28;19929;-70
2022/01/05 06:43:56;;;;;;;;;;;;;;;;;;5010503;28;19925;-71
2022/01/05 06:46:23;;;;;;;;;;;;;;;;;;5006600;28;19934;-70
2022/01/05 06:48:50;;;;;;;;;;;;;;;;;;5011281;28;19932;-70
2022/01/05 06:51:17;;;;;;;;;;;;;;;;;;5005748;28;19925;-70
2022/01/05 06:53:44;;;;;;;;;;;;;;;;;;5007366;28;19925;-70
2022/01/05 06:56:11;;;;;;;;;;;;;;;;;;5007096;28;20009;-71
2022/01/05 06:58:38;;;;;;;;;;;;;;;;;;5005698;28;20253;-70
2022/01/05 07:01:05;;;;;;;;;;;;;;;;;;5002851;28;20387;-70
2022/01/05 07:03:32;;;;;;;;;;;;;;;;;;5007882;28;19932;-70
2022/01/05 07:05:59;;;;;;;;;;;;;;;;;;5006453;28;19934;-70
2022/01/05 07:08:26;;;;;;;;;;;;;;;;;;5009370;28;20056;-71
2022/01/05 07:10:53;;;;;;;;;;;;;;;;;;5007289;28;19934;-71
2022/01/05 07:13:20;;;;;;;;;;;;;;;;;;5007032;28;19926;-71
2022/01/05 07:15:47;;;;;;;;;;;;;;;;;;5001200;28;21637;-70
2022/01/05 07:18:14;;;;;;;;;;;;;;;;;;5009602;28;19929;-70
2022/01/05 07:20:41;;;;;;;;;;;;;;;;;;5008133;28;19926;-70
2022/01/05 07:23:08;;;;;;;;;;;;;;;;;;5006670;28;19925;-70
2022/01/05 07:25:35;;;;;;;;;;;;;;;;;;5007743;28;20407;-70
2022/01/05 07:28:02;;;;;;;;;;;;;;;;;;5007302;28;19934;-70
2022/01/05 07:30:29;;;;;;;;;;;;;;;;;;5009641;28;19978;-71
2022/01/05 07:32:56;;;;;;;;;;;;;;;;;;5008146;28;19926;-70
2022/01/05 07:35:23;;;;;;;;;;;;;;;;;;5003870;28;19997;-71
2022/01/05 07:37:50;;;;;;;;;;;;;;;;;;5000838;28;19926;-70
2022/01/05 07:40:17;;;;;;;;;;;;;;;;;;5008272;28;19937;-71
2022/01/05 07:42:44;;;;;;;;;;;;;;;;;;5009546;28;20020;-70
2022/01/05 07:45:11;;;;;;;;;;;;;;;;;;5011656;28;20009;-71
2022/01/05 07:47:38;;;;;;;;;;;;;;;;;;5010725;28;19926;-72
2022/01/05 07:50:06;;;;;;;;;;;;;;;;;;5013034;28;20398;-72
2022/01/05 07:52:33;;;;;;;;;;;;;;;;;;5012026;28;19976;-72
2022/01/05 07:55:01;;;;;;;;;;;;;;;;;;5016956;28;19932;-72
2022/01/05 07:57:28;;;;;;;;;;;;;;;;;;5010003;28;19929;-72
2022/01/05 07:59:55;;;;;;;;;;;;;;;;;;5014182;28;19933;-70
2022/01/05 08:02:22;;;;;;;;;;;;;;;;;;5006858;28;19933;-71
2022/01/05 08:04:49;;;;;;;;;;;;;;;;;;5010212;28;20012;-71
2022/01/05 08:07:16;;;;;;;;;;;;;;;;;;5010568;28;19931;-71
2022/01/05 08:09:43;;;;;;;;;;;;;;;;;;5014294;28;20044;-71
2022/01/05 08:12:10;;;;;;;;;;;;;;;;;;5011189;28;19934;-70
2022/01/05 08:14:37;;;;;;;;;;;;;;;;;;5012899;28;19926;-70
2022/01/05 08:17:04;;;;;;;;;;;;;;;;;;5010461;28;19925;-70
2022/01/05 08:19:31;;;;;;;;;;;;;;;;;;5008985;28;20392;-70
2022/01/05 08:21:58;;;;;;;;;;;;;;;;;;5011524;28;20005;-71
2022/01/05 08:24:26;;;;;;;;;;;;;;;;;;5014054;28;20458;-70
2022/01/05 08:26:53;;;;;;;;;;;;;;;;;;5012211;28;19973;-71
2022/01/05 08:29:20;;;;;;;;;;;;;;;;;;5012436;28;19987;-71
2022/01/05 08:31:47;;;;;;;;;;;;;;;;;;5008632;28;19926;-69
2022/01/05 08:34:14;;;;;;;;;;;;;;;;;;5010076;28;19925;-70
2022/01/05 08:36:41;;;;;;;;;;;;;;;;;;5008309;28;19932;-69
2022/01/05 08:39:08;;;;;;;;;;;;;;;;;;5009759;28;19933;-70
2022/01/05 08:41:35;;;;;;;;;;;;;;;;;;5007880;28;19933;-73
2022/01/05 08:44:02;;;;;;;;;;;;;;;;;;5010409;28;19925;-70
2022/01/05 08:46:29;;;;;;;;;;;;;;;;;;5015932;28;19925;-69
2022/01/05 08:48:56;;;;;;;;;;;;;;;;;;5007376;28;19934;-70
2022/01/05 08:51:23;;;;;;;;;;;;;;;;;;5011616;28;19930;-69
2022/01/05 08:53:50;;;;;;;;;;;;;;;;;;5013157;28;20308;-69
2022/01/05 08:56:17;;;;;;;;;;;;;;;;;;5014597;28;20368;-70
2022/01/05 08:58:44;;;;;;;;;;;;;;;;;;5011846;28;19961;-70
2022/01/05 09:01:12;;;;;;;;;;;;;;;;;;5009367;28;19934;-71
2022/01/05 09:03:39;;;;;;;;;;;;;;;;;;5012709;28;19929;-71
2022/01/05 09:06:07;;;;;;;;;;;;;;;;;;5004799;28;19936;-71
2022/01/05 09:08:34;;;;;;;;;;;;;;;;;;5008971;28;19934;-70
2022/01/05 09:11:02;;;;;;;;;;;;;;;;;;5007917;28;19934;-71
2022/01/05 09:13:29;;;;;;;;;;;;;;;;;;5006197;28;19929;-72
2022/01/05 09:15:56;;;;;;;;;;;;;;;;;;5008281;28;19933;-71
2022/01/05 09:18:24;;;;;;;;;;;;;;;;;;5006221;28;20289;-72
2022/01/05 09:20:52;;;;;;;;;;;;;;;;;;5004166;28;19980;-71
2022/01/05 09:23:19;;;;;;;;;;;;;;;;;;5008466;28;20027;-71
2022/01/05 09:25:46;;;;;;;;;;;;;;;;;;5008227;28;19957;-72
2022/01/05 09:28:13;;;;;;;;;;;;;;;;;;5005698;28;19997;-73
2022/01/05 09:30:45;;;;;;;;;;;;;;;;;;5004310;28;20024;-70
2022/01/05 09:33:12;;;;;;;;;;;;;;;;;;5006584;28;20411;-71
2022/01/05 09:35:39;;;;;;;;;;;;;;;;;;5002042;28;20012;-72
2022/01/05 09:38:22;;;;;;;;;;;;;;;;;;5005047;28;20012;-70
2022/01/05 09:43:33;;;;;;;;;;;;;;;;;;5006282;28;19928;-71
2022/01/05 09:46:01;;;;;;;;;;;;;;;;;;5001838;28;19943;-71
2022/01/05 09:48:28;;;;;;;;;;;;;;;;;;5007418;28;20016;-71
2022/01/05 09:50:55;;;;;;;;;;;;;;;;;;5001539;28;20411;-71
2022/01/05 09:53:22;;;;;;;;;;;;;;;;;;5006170;28;19925;-70
2022/01/05 09:55:51;;;;;;;;;;;;;;;;;;5005485;28;20288;-70
2022/01/05 09:58:18;;;;;;;;;;;;;;;;;;5004097;28;19939;-71
2022/01/05 10:00:45;;;;;;;;;;;;;;;;;;5006614;28;19926;-71
2022/01/05 10:03:14;;;;;;;;;;;;;;;;;;5000123;28;19925;-71
2022/01/05 10:05:41;;;;;;;;;;;;;;;;;;4999661;28;19925;-71
2022/01/05 10:08:08;;;;;;;;;;;;;;;;;;5006690;28;19926;-73
2022/01/05 10:10:35;;;;;;;;;;;;;;;;;;5006928;28;19925;-71
2022/01/05 10:13:02;;;;;;;;;;;;;;;;;;5001676;28;20394;-71
2022/01/05 10:15:29;;;;;;;;;;;;;;;;;;5007778;28;19976;-70
2022/01/05 10:17:56;;;;;;;;;;;;;;;;;;5005855;28;19926;-68
2022/01/05 10:20:23;;;;;;;;;;;;;;;;;;5003547;28;19925;-68
2022/01/05 10:22:50;;;;;;;;;;;;;;;;;;5001687;28;19925;-69
2022/01/05 10:25:17;;;;;;;;;;;;;;;;;;5001660;28;19931;-70
2022/01/05 10:27:45;;;;;;;;;;;;;;;;;;5002264;28;19936;-72
2022/01/05 10:30:12;;;;;;;;;;;;;;;;;;5003010;28;19967;-71
2022/01/05 10:32:39;;;;;;;;;;;;;;;;;;5003826;28;20386;-71
2022/01/05 10:35:06;;;;;;;;;;;;;;;;;;5005879;28;19996;-71
2022/01/05 10:37:33;;;;;;;;;;;;;;;;;;5003133;28;20392;-71
2022/01/05 10:40:00;;;;;;;;;;;;;;;;;;5005752;28;20388;-71
2022/01/05 10:42:26;;;;;;;;;;;;;;;;;;5003209;28;19940;-72
2022/01/05 10:44:53;;;;;;;;;;;;;;;;;;5004276;28;19944;-73
2022/01/05 10:47:20;;;;;;;;;;;;;;;;;;5000714;28;19932;-70
2022/01/05 10:49:47;;;;;;;;;;;;;;;;;;5004087;28;20431;-71
2022/01/05 10:52:14;;;;;;;;;;;;;;;;;;5004509;28;19933;-71
2022/01/05 10:54:41;;;;;;;;;;;;;;;;;;5000900;28;20012;-72
2022/01/05 10:57:09;;;;;;;;;;;;;;;;;;5002169;28;19932;-71
2022/01/05 10:59:37;;;;;;;;;;;;;;;;;;5003707;28;19940;-72
2022/01/05 11:02:04;;;;;;;;;;;;;;;;;;5002587;28;19936;-71
2022/01/05 11:04:31;;;;;;;;;;;;;;;;;;5007113;28;19934;-72
2022/01/05 11:06:58;;;;;;;;;;;;;;;;;;5006499;28;20424;-72
2022/01/05 11:09:25;;;;;;;;;;;;;;;;;;5011761;28;19929;-73
2022/01/05 11:11:52;;;;;;;;;;;;;;;;;;5000777;28;19926;-71
2022/01/05 11:14:19;;;;;;;;;;;;;;;;;;5006882;28;20029;-72
2022/01/05 11:16:46;;;;;;;;;;;;;;;;;;5003039;28;19925;-72
2022/01/05 11:19:13;;;;;;;;;;;;;;;;;;5008480;28;20016;-72
2022/01/05 11:21:40;;;;;;;;;;;;;;;;;;5002789;28;19957;-72
2022/01/05 11:24:07;;;;;;;;;;;;;;;;;;5006909;28;19943;-69
2022/01/05 11:26:35;;;;;;;;;;;;;;;;;;5008199;28;20364;-72
2022/01/05 11:29:03;;;;;;;;;;;;;;;;;;5004256;28;19933;-72
2022/01/05 11:31:30;;;;;;;;;;;;;;;;;;5004443;28;20287;-71
2022/01/05 11:33:57;;;;;;;;;;;;;;;;;;5005870;28;19926;-72
2022/01/05 11:36:24;;;;;;;;;;;;;;;;;;5005386;28;20008;-72
2022/01/05 11:38:51;;;;;;;;;;;;;;;;;;5005875;28;20020;-72
2022/01/05 11:41:18;;;;;;;;;;;;;;;;;;5007279;28;20004;-74
2022/01/05 11:43:46;;;;;;;;;;;;;;;;;;5005558;28;19959;-73
2022/01/05 11:46:13;;;;;;;;;;;;;;;;;;5003733;28;20404;-71
2022/01/05 11:48:40;;;;;;;;;;;;;;;;;;5006648;28;19947;-72
2022/01/05 11:51:07;;;;;;;;;;;;;;;;;;5002130;28;20017;-72
2022/01/05 11:53:35;;;;;;;;;;;;;;;;;;5002558;28;19936;-73
2022/01/05 11:56:02;;;;;;;;;;;;;;;;;;5003360;28;20024;-71
2022/01/05 11:58:29;;;;;;;;;;;;;;;;;;5002836;28;19926;-71
2022/01/05 12:00:56;;;;;;;;;;;;;;;;;;5005525;28;20562;-72
2022/01/05 12:03:23;;;;;;;;;;;;;;;;;;5006164;28;20031;-72
2022/01/05 12:05:50;;;;;;;;;;;;;;;;;;5005818;28;19933;-72
2022/01/05 12:08:17;;;;;;;;;;;;;;;;;;5002277;28;19933;-71
2022/01/05 12:10:44;;;;;;;;;;;;;;;;;;5006770;28;19933;-71
2022/01/05 12:13:10;;;;;;;;;;;;;;;;;;5004135;28;20304;-71
2022/01/05 12:15:37;;;;;;;;;;;;;;;;;;5001880;28;20406;-74
2022/01/05 12:18:04;;;;;;;;;;;;;;;;;;5004078;28;20332;-71
2022/01/05 12:20:31;;;;;;;;;;;;;;;;;;5007585;28;19925;-74
2022/01/05 12:22:58;;;;;;;;;;;;;;;;;;5004158;28;19945;-69
2022/01/05 12:25:25;;;;;;;;;;;;;;;;;;5006566;28;20021;-71
2022/01/05 12:27:52;;;;;;;;;;;;;;;;;;5006973;28;19932;-71
2022/01/05 12:30:20;;;;;;;;;;;;;;;;;;5009269;28;19933;-71
2022/01/05 12:32:47;;;;;;;;;;;;;;;;;;5007624;28;20012;-71
2022/01/05 12:35:14;;;;;;;;;;;;;;;;;;5004370;28;19948;-71
2022/01/05 12:37:41;;;;;;;;;;;;;;;;;;5007514;28;19932;-72
2022/01/05 12:40:08;;;;;;;;;;;;;;;;;;5005331;28;19925;-70
2022/01/05 12:42:35;;;;;;;;;;;;;;;;;;5008836;28;20337;-70
2022/01/05 12:45:02;;;;;;;;;;;;;;;;;;5010159;28;19941;-71
2022/01/05 12:47:29;;;;;;;;;;;;;;;;;;5006303;28;20008;-72
2022/01/05 12:49:56;;;;;;;;;;;;;;;;;;5010408;28;20303;-72
2022/01/05 12:52:23;;;;;;;;;;;;;;;;;;5009896;28;19976;-72
2022/01/05 12:54:57;;;;;;;;;;;;;;;;;;5009695;28;19967;-71
2022/01/05 12:57:25;;;;;;;;;;;;;;;;;;5008473;28;20406;-70
2022/01/05 12:59:53;;;;;;;;;;;;;;;;;;5008322;28;19933;-72
2022/01/05 13:02:23;;;;;;;;;;;;;;;;;;5005968;28;20368;-70
2022/01/05 13:04:50;;;;;;;;;;;;;;;;;;5008080;28;19932;-72
2022/01/05 13:07:17;;;;;;;;;;;;;;;;;;5007837;28;19933;-71
2022/01/05 13:09:44;;;;;;;;;;;;;;;;;;5011383;28;19944;-71
2022/01/05 13:12:12;;;;;;;;;;;;;;;;;;5009676;28;20296;-71
2022/01/05 13:14:38;;;;;;;;;;;;;;;;;;5003797;28;20500;-72
2022/01/05 13:17:06;;;;;;;;;;;;;;;;;;5004538;28;20390;-71
2022/01/05 13:19:33;;;;;;;;;;;;;;;;;;5010232;28;20020;-72
2022/01/05 13:22:00;;;;;;;;;;;;;;;;;;5005888;28;19926;-73
2022/01/05 13:24:27;;;;;;;;;;;;;;;;;;5003461;28;19952;-71
2022/01/05 13:26:54;;;;;;;;;;;;;;;;;;5004902;28;20006;-71
2022/01/05 13:29:21;;;;;;;;;;;;;;;;;;5009466;28;19999;-72
2022/01/05 13:31:48;;;;;;;;;;;;;;;;;;5005875;28;19957;-69
2022/01/05 13:34:15;;;;;;;;;;;;;;;;;;5006556;28;19926;-68
2022/01/05 13:36:42;;;;;;;;;;;;;;;;;;5002267;28;19940;-71
2022/01/05 13:39:11;;;;;;;;;;;;;;;;;;5007801;28;19929;-72
2022/01/05 13:41:38;;;;;;;;;;;;;;;;;;5006667;28;20032;-71
2022/01/05 13:44:08;;;;;;;;;;;;;;;;;;5008372;28;19937;-72
2022/01/05 13:46:34;;;;;;;;;;;;;;;;;;5006604;28;19932;-72
2022/01/05 13:49:01;;;;;;;;;;;;;;;;;;5006338;28;19933;-72
2022/01/05 13:51:28;;;;;;;;;;;;;;;;;;5008459;28;19926;-72
2022/01/05 13:53:55;;;;;;;;;;;;;;;;;;5005596;28;20028;-72
2022/01/05 13:56:26;;;;;;;;;;;;;;;;;;5007810;28;19925;-72
2022/01/05 13:58:55;;;;;;;;;;;;;;;;;;5005371;28;19934;-73
2022/01/05 14:01:22;;;;;;;;;;;;;;;;;;5006378;28;19980;-72
2022/01/05 14:03:51;;;;;;;;;;;;;;;;;;5009335;28;19926;-72
2022/01/05 14:06:18;;;;;;;;;;;;;;;;;;5006066;28;19980;-72
2022/01/05 14:08:45;;;;;;;;;;;;;;;;;;5005244;28;19925;-72
2022/01/05 14:11:12;;;;;;;;;;;;;;;;;;5005045;28;19934;-71
2022/01/05 14:13:39;;;;;;;;;;;;;;;;;;5005834;28;19972;-71
2022/01/05 14:16:07;;;;;;;;;;;;;;;;;;5004894;28;20024;-71
2022/01/05 14:18:34;;;;;;;;;;;;;;;;;;5003109;28;19937;-71
2022/01/05 14:21:01;;;;;;;;;;;;;;;;;;5004819;28;19929;-70
2022/01/05 14:23:28;;;;;;;;;;;;;;;;;;5004842;28;19980;-71
2022/01/05 14:25:57;;;;;;;;;;;;;;;;;;5008342;28;19988;-72
2022/01/05 14:28:25;;;;;;;;;;;;;;;;;;5013125;28;19926;-73
2022/01/05 14:30:52;;;;;;;;;;;;;;;;;;5007011;28;20836;-71
2022/01/05 14:33:19;;;;;;;;;;;;;;;;;;5005774;28;19932;-71
2022/01/05 14:35:46;;;;;;;;;;;;;;;;;;5001328;28;20020;-70
2022/01/05 14:38:13;;;;;;;;;;;;;;;;;;5005275;28;20158;-73
2022/01/05 14:40:40;;;;;;;;;;;;;;;;;;5006571;28;20012;-70
2022/01/05 14:43:07;;;;;;;;;;;;;;;;;;5007463;28;20016;-70
2022/01/05 14:45:36;;;;;;;;;;;;;;;;;;5005447;28;23897;-70
2022/01/05 14:48:04;;;;;;;;;;;;;;;;;;5005476;28;19932;-71
2022/01/05 14:50:31;;;;;;;;;;;;;;;;;;5005110;28;19925;-70
2022/01/05 14:53:00;;;;;;;;;;;;;;;;;;5007283;28;19925;-69
2022/01/05 14:55:27;;;;;;;;;;;;;;;;;;5003125;28;19944;-69
2022/01/05 14:57:54;;;;;;;;;;;;;;;;;;5002585;28;19940;-69
2022/01/05 15:00:23;;;;;;;;;;;;;;;;;;5004760;28;19932;-70
2022/01/05 15:02:50;;;;;;;;;;;;;;;;;;5002743;28;19980;-70
2022/01/05 15:05:17;;;;;;;;;;;;;;;;;;5001164;28;20623;-70
2022/01/05 15:07:44;;;;;;;;;;;;;;;;;;5005535;28;19988;-70
2022/01/05 15:10:10;;;;;;;;;;;;;;;;;;5008501;28;20384;-71
2022/01/05 15:12:37;;;;;;;;;;;;;;;;;;5007123;28;19976;-70
2022/01/05 15:15:05;;;;;;;;;;;;;;;;;;5002636;28;20013;-71
2022/01/05 15:17:32;;;;;;;;;;;;;;;;;;5005084;28;19952;-70
2022/01/05 15:19:59;;;;;;;;;;;;;;;;;;5006463;28;19933;-72
2022/01/05 15:22:25;;;;;;;;;;;;;;;;;;5009061;28;19930;-70
2022/01/05 15:24:52;;;;;;;;;;;;;;;;;;5006667;28;19968;-70
2022/01/05 15:27:19;;;;;;;;;;;;;;;;;;5002151;28;19926;-69
2022/01/05 15:29:46;;;;;;;;;;;;;;;;;;5006349;28;19932;-70
2022/01/05 15:32:14;;;;;;;;;;;;;;;;;;5004780;28;19925;-71
2022/01/05 15:34:41;;;;;;;;;;;;;;;;;;5006455;28;19932;-69
2022/01/05 15:37:07;;;;;;;;;;;;;;;;;;5005733;28;20434;-70
2022/01/05 15:39:34;;;;;;;;;;;;;;;;;;5004729;28;19926;-70
2022/01/05 15:42:02;;;;;;;;;;;;;;;;;;5001452;28;19925;-70
2022/01/05 15:44:28;;;;;;;;;;;;;;;;;;4993236;28;19933;-71
2022/01/05 15:46:55;;;;;;;;;;;;;;;;;;5003463;28;19931;-71
2022/01/05 15:49:23;;;;;;;;;;;;;;;;;;5003034;28;19925;-69
2022/01/05 15:51:50;;;;;;;;;;;;;;;;;;4998018;28;20521;-69
2022/01/05 15:54:17;;;;;;;;;;;;;;;;;;5006052;28;19943;-69
2022/01/05 15:56:52;;;;;;;;;;;;;;;;;;4999857;28;21462;-71
2022/01/05 16:02:03;;;;;;;;;;;;;;;;;;5004435;28;19929;-70
2022/01/05 16:04:31;;;;;;;;;;;;;;;;;;5009598;28;19965;-70
2022/01/05 16:06:58;;;;;;;;;;;;;;;;;;5004778;28;20080;-69
2022/01/05 16:09:25;;;;;;;;;;;;;;;;;;5002742;28;20045;-68
2022/01/05 16:11:53;;;;;;;;;;;;;;;;;;5008119;28;20008;-69
2022/01/05 16:14:20;;;;;;;;;;;;;;;;;;5003196;28;20056;-70
2022/01/05 16:16:47;;;;;;;;;;;;;;;;;;5008727;28;19956;-69
2022/01/05 16:19:14;;;;;;;;;;;;;;;;;;5005942;28;19940;-70
2022/01/05 16:21:41;;;;;;;;;;;;;;;;;;5008714;28;19929;-69
2022/01/05 16:24:13;;;;;;;;;;;;;;;;;;5009639;28;20470;-70
2022/01/05 16:26:40;;;;;;;;;;;;;;;;;;5009041;28;20004;-71
2022/01/05 16:29:08;;;;;;;;;;;;;;;;;;5008251;28;20015;-70
2022/01/05 16:31:34;;;;;;;;;;;;;;;;;;5008995;28;19926;-70
2022/01/05 16:34:01;;;;;;;;;;;;;;;;;;5009334;28;19931;-71
2022/01/05 16:36:28;;;;;;;;;;;;;;;;;;5004340;28;20023;-70
2022/01/05 16:38:55;;;;;;;;;;;;;;;;;;5006943;28;20012;-69
2022/01/05 16:41:22;;;;;;;;;;;;;;;;;;5008979;28;20056;-71
2022/01/05 16:43:49;;;;;;;;;;;;;;;;;;5007132;28;19926;-70
2022/01/05 16:46:21;;;;;;;;;;;;;;;;;;5002872;28;19932;-72
2022/01/05 16:48:48;;;;;;;;;;;;;;;;;;5006579;28;19932;-72
2022/01/05 16:51:14;;;;;;;;;;;;;;;;;;5005977;28;19932;-70